Time;durP1;ratioP1;P1;durP2;ratioP2;P2;SDS_P1;SDS_P2;PMS_P1;PMS_P2;Temp;Humidity;BMP_temperature;BMP_pressure;BME280_temperature;BME280_humidity;BME280_pressure;Samples;Min_cycle;Max_cycle;Signal;HPM_P1;HPM_P2
2022/04/04 00:00:18;;;;;;;9.27;4.22;;;;;;;0.12;100.00;100252.03;5074723;28;20037;-76
2022/04/04 00:02:43;;;;;;;8.70;4.22;;;;;;;0.14;100.00;100256.44;5073430;28;20078;-76
2022/04/04 00:05:11;;;;;;;9.20;4.10;;;;;;;0.16;100.00;100243.31;5075131;28;20021;-76
2022/04/04 00:07:36;;;;;;;7.97;4.75;;;;;;;0.07;100.00;100234.47;5074931;28;20107;-76
2022/04/04 00:10:02;;;;;;;8.52;4.63;;;;;;;-0.03;100.00;100238.72;5074551;28;20056;-76
2022/04/04 00:12:27;;;;;;;9.45;5.07;;;;;;;0.02;100.00;100235.28;5074804;28;20032;-75
2022/04/04 00:14:53;;;;;;;7.35;4.63;;;;;;;0.03;100.00;100231.75;5074337;28;20055;-76
2022/04/04 00:17:18;;;;;;;7.63;4.80;;;;;;;-0.05;100.00;100229.06;5074732;28;20032;-76
2022/04/04 00:19:43;;;;;;;7.75;4.35;;;;;;;-0.02;100.00;100221.22;5073613;28;20025;-76
2022/04/04 00:22:08;;;;;;;6.95;4.22;;;;;;;-0.01;100.00;100220.38;5074358;28;20470;-76
2022/04/04 00:24:35;;;;;;;7.60;4.32;;;;;;;-0.04;100.00;100220.31;5074423;28;20170;-76
2022/04/04 00:27:01;;;;;;;9.40;5.00;;;;;;;-0.03;100.00;100211.59;5074270;28;20077;-76
2022/04/04 00:29:27;;;;;;;8.35;4.63;;;;;;;-0.02;100.00;100208.09;5074240;28;20024;-76
2022/04/04 00:31:53;;;;;;;12.75;4.85;;;;;;;-0.02;100.00;100219.47;5074243;28;20477;-76
2022/04/04 00:34:18;;;;;;;10.77;5.35;;;;;;;-0.03;100.00;100214.22;5074290;28;20500;-76
2022/04/04 00:36:43;;;;;;;8.55;4.93;;;;;;;0.06;100.00;100201.19;5074176;28;20032;-76
2022/04/04 00:39:10;;;;;;;9.25;5.00;;;;;;;-0.03;100.00;100208.97;5074126;28;20024;-76
2022/04/04 00:41:35;;;;;;;8.52;4.50;;;;;;;-0.08;100.00;100202.78;5072821;28;20032;-76
2022/04/04 00:44:01;;;;;;;9.40;4.78;;;;;;;-0.08;100.00;100202.78;5072644;28;20024;-76
2022/04/04 00:46:26;;;;;;;8.55;4.88;;;;;;;0.01;100.00;100195.00;5072690;28;20047;-76
2022/04/04 00:48:52;;;;;;;7.47;4.60;;;;;;;-0.03;100.00;100195.84;5073911;28;20020;-76
2022/04/04 00:51:17;;;;;;;10.32;4.95;;;;;;;0.07;100.00;100192.47;5072661;28;20020;-76
2022/04/04 00:53:43;;;;;;;8.35;4.38;;;;;;;0.00;100.00;100195.88;5072319;28;20085;-75
2022/04/04 00:56:11;;;;;;;9.30;4.95;;;;;;;0.00;100.00;100185.38;5072425;28;20031;-76
2022/04/04 00:58:38;;;;;;;7.20;4.28;;;;;;;-0.02;100.00;100185.34;5073553;28;20108;-76
2022/04/04 01:01:03;;;;;;;7.45;4.50;;;;;;;-0.09;100.00;100180.88;5073604;28;20465;-75
2022/04/04 01:03:28;;;;;;;9.07;4.68;;;;;;;-0.16;100.00;100185.19;5073942;28;20047;-75
2022/04/04 01:05:55;;;;;;;7.65;4.38;;;;;;;-0.12;100.00;100175.59;5072165;28;20025;-76
2022/04/04 01:08:21;;;;;;;9.75;5.15;;;;;;;-0.12;100.00;100176.47;5073754;28;20028;-76
2022/04/04 01:10:47;;;;;;;10.85;5.93;;;;;;;-0.12;100.00;100184.34;5073722;28;20082;-76
2022/04/04 01:13:13;;;;;;;9.80;5.10;;;;;;;-0.01;100.00;100181.88;5073314;28;20017;-76
2022/04/04 01:15:38;;;;;;;11.30;5.40;;;;;;;0.01;100.00;100176.63;5073289;28;20037;-76
2022/04/04 01:18:05;;;;;;;9.48;5.13;;;;;;;0.05;100.00;100167.91;5073365;28;20021;-76
2022/04/04 01:20:31;;;;;;;10.70;5.72;;;;;;;-0.09;100.00;100164.25;5073356;28;20024;-76
2022/04/04 01:22:56;;;;;;;12.02;5.90;;;;;;;-0.06;100.00;100159.94;5073573;28;20073;-76
2022/04/04 01:25:27;;;;;;;11.27;6.38;;;;;;;-0.08;100.00;100155.53;5073235;28;20074;-76
2022/04/04 01:27:53;;;;;;;10.07;6.07;;;;;;;-0.13;100.00;100153.72;5073212;28;20058;-76
2022/04/04 01:30:19;;;;;;;9.73;6.05;;;;;;;-0.07;100.00;100141.50;5071517;28;20113;-74
2022/04/04 01:32:44;;;;;;;10.93;6.05;;;;;;;-0.03;100.00;100138.09;5073290;28;20419;-77
2022/04/04 01:35:10;;;;;;;12.38;6.57;;;;;;;0.02;100.00;100135.50;5072995;28;20017;-76
2022/04/04 01:37:36;;;;;;;11.75;6.63;;;;;;;-0.03;100.00;100127.59;5073406;28;20389;-76
2022/04/04 01:40:03;;;;;;;12.38;7.20;;;;;;;-0.10;100.00;100131.00;5073506;28;20036;-76
2022/04/04 01:42:29;;;;;;;12.43;6.82;;;;;;;-0.10;100.00;100125.75;5072965;28;20063;-76
2022/04/04 01:44:54;;;;;;;13.93;7.55;;;;;;;-0.13;100.00;100124.84;5072956;28;20060;-76
2022/04/04 01:47:19;;;;;;;12.85;7.68;;;;;;;-0.01;100.00;100124.09;5071589;28;20020;-76
2022/04/04 01:49:45;;;;;;;13.80;7.35;;;;;;;-0.03;100.00;100128.47;5071638;28;20025;-76
2022/04/04 01:52:10;;;;;;;15.93;7.53;;;;;;;0.04;100.00;100113.66;5072917;28;20016;-76
2022/04/04 01:54:35;;;;;;;13.52;7.40;;;;;;;0.04;100.00;100111.03;5072972;28;20020;-76
2022/04/04 01:57:00;;;;;;;14.18;7.75;;;;;;;-0.02;100.00;100103.06;5072870;28;20071;-76
2022/04/04 01:59:26;;;;;;;11.25;7.07;;;;;;;-0.02;100.00;100089.94;5071520;28;20119;-76
2022/04/04 02:01:51;;;;;;;14.23;7.63;;;;;;;-0.13;100.00;100095.09;5072916;28;20024;-76
2022/04/04 02:04:16;;;;;;;14.43;8.18;;;;;;;-0.13;100.00;100088.09;5072829;28;20016;-76
2022/04/04 02:06:43;;;;;;;13.60;7.78;;;;;;;-0.08;100.00;100079.41;5073026;28;20040;-76
2022/04/04 02:09:09;;;;;;;13.23;7.35;;;;;;;-0.04;100.00;100078.56;5072773;28;20050;-76
2022/04/04 02:11:34;;;;;;;11.27;7.15;;;;;;;0.01;100.00;100070.72;5071451;28;20032;-76
2022/04/04 02:14:02;;;;;;;11.85;7.03;;;;;;;-0.10;100.00;100068.00;5072586;28;20024;-76
2022/04/04 02:16:27;;;;;;;11.90;6.93;;;;;;;-0.19;100.00;100059.16;5072811;28;20029;-75
2022/04/04 02:18:52;;;;;;;18.13;7.70;;;;;;;-0.21;100.00;100068.78;5071464;28;20053;-76
2022/04/04 02:21:19;;;;;;;13.07;7.22;;;;;;;-0.19;100.00;100060.91;5072722;28;20542;-76
2022/04/04 02:23:44;;;;;;;14.23;7.03;;;;;;;-0.25;100.00;100053.84;5072624;28;20027;-76
2022/04/04 02:26:09;;;;;;;14.52;8.23;;;;;;;-0.27;100.00;100048.59;5071380;28;20024;-76
2022/04/04 02:28:35;;;;;;;17.88;7.90;;;;;;;-0.14;100.00;100046.97;5072600;28;20031;-76
2022/04/04 02:31:01;;;;;;;16.25;8.38;;;;;;;-0.19;100.00;100035.53;5071353;28;20024;-76
2022/04/04 02:33:26;;;;;;;15.07;8.50;;;;;;;-0.03;100.00;100038.31;5072599;28;20029;-76
2022/04/04 02:35:53;;;;;;;16.67;8.38;;;;;;;-0.15;100.00;100037.31;5072698;28;20060;-76
2022/04/04 02:38:20;;;;;;;15.60;7.82;;;;;;;-0.20;100.00;100033.78;5072459;28;20024;-76
2022/04/04 02:40:46;;;;;;;16.05;9.80;;;;;;;-0.24;100.00;100024.13;5072435;28;20024;-76
2022/04/04 02:43:12;;;;;;;17.35;8.88;;;;;;;-0.17;100.00;100023.31;5074614;28;20028;-76
2022/04/04 02:45:37;;;;;;;16.85;9.15;;;;;;;-0.17;100.00;100025.03;5076154;28;20032;-76
2022/04/04 02:48:03;;;;;;;17.95;9.23;;;;;;;-0.18;100.00;100016.28;5076138;28;20077;-76
2022/04/04 02:50:29;;;;;;;14.95;8.27;;;;;;;-0.09;100.00;100012.88;5076067;28;20158;-76
2022/04/04 02:52:54;;;;;;;16.13;9.70;;;;;;;-0.13;100.00;100017.22;5075065;28;20070;-76
2022/04/04 02:58:03;;;;;;;17.20;9.18;;;;;;;-0.13;100.00;100006.72;5076039;28;20036;-76
2022/04/04 03:00:28;;;;;;;16.35;9.02;;;;;;;-0.14;100.00;99988.34;5099918;22;20052;-84
2022/04/04 03:02:58;;;;;;;16.33;8.70;;;;;;;-0.17;100.00;99978.69;5077174;28;20024;-83
2022/04/04 03:05:24;;;;;;;15.30;8.65;;;;;;;-0.15;100.00;99990.06;5076295;28;20017;-83
2022/04/04 03:07:56;;;;;;;14.23;7.88;;;;;;;-0.12;100.00;99973.47;5076825;28;20450;-84
2022/04/04 03:10:21;;;;;;;14.35;8.45;;;;;;;-0.18;100.00;99965.56;5075773;28;20032;-85
2022/04/04 03:12:51;;;;;;;15.23;9.05;;;;;;;-0.21;100.00;99969.03;5077033;28;20059;-84
2022/04/04 03:15:19;;;;;;;14.20;8.57;;;;;;;-0.14;100.00;99962.09;5076924;28;20024;-84
2022/04/04 03:17:50;;;;;;;14.93;8.05;;;;;;;-0.25;100.00;99949.75;5075585;28;20112;-84
2022/04/04 03:20:30;;;;;;;16.60;8.85;;;;;;;-0.27;100.00;99950.59;5077683;28;20095;-84
2022/04/04 03:23:03;;;;;;;13.55;7.85;;;;;;;-0.24;100.00;99942.75;5077730;28;20483;-84
2022/04/04 03:25:31;;;;;;;13.40;7.13;;;;;;;-0.28;100.00;99939.22;5078026;28;20033;-85
2022/04/04 03:27:57;;;;;;;15.80;8.27;;;;;;;-0.22;100.00;99938.41;5078821;28;20503;-84
2022/04/04 03:30:33;;;;;;;17.83;8.15;;;;;;;-0.20;100.00;99920.91;5076036;28;20111;-86
2022/04/04 03:32:59;;;;;;;14.30;8.13;;;;;;;-0.12;100.00;99918.34;5075774;28;20115;-86
2022/04/04 03:35:31;;;;;;;13.18;7.97;;;;;;;-0.16;100.00;99911.34;5075410;28;20048;-86
2022/04/04 03:38:04;;;;;;;13.48;8.05;;;;;;;-0.15;100.00;99919.22;5076697;28;20440;-86
2022/04/04 03:40:42;;;;;;;13.63;7.72;;;;;;;-0.10;100.00;99915.75;5075874;28;20044;-86
2022/04/04 03:43:19;;;;;;;12.43;7.45;;;;;;;-0.05;100.00;99904.41;5074372;28;20489;-85
2022/04/04 03:45:44;;;;;;;17.10;7.78;;;;;;;-0.06;100.00;99904.41;5075028;28;20052;-85
2022/04/04 03:48:10;;;;;;;13.02;7.78;;;;;;;0.06;100.00;99904.50;5074629;28;20075;-85
2022/04/04 03:50:35;;;;;;;17.58;8.10;;;;;;;-0.03;100.00;99901.81;5075915;28;20032;-85
2022/04/04 03:53:05;;;;;;;15.10;8.18;;;;;;;-0.02;100.00;99895.69;5074399;28;20020;-85
2022/04/04 03:55:38;;;;;;;13.20;7.78;;;;;;;0.13;100.00;99881.78;5074285;28;20115;-85
2022/04/04 03:58:05;;;;;;;15.55;8.35;;;;;;;0.07;100.00;99872.13;5075365;28;20048;-85
2022/04/04 04:00:30;;;;;;;14.23;8.88;;;;;;;0.05;100.00;99865.13;5074446;28;20029;-83
2022/04/04 04:02:56;;;;;;;19.92;9.20;;;;;;;-0.01;100.00;99855.44;5074187;28;20070;-85
2022/04/04 04:05:32;;;;;;;17.33;9.75;;;;;;;-0.01;100.00;99848.44;5075670;28;20055;-86
2022/04/04 04:07:57;;;;;;;17.90;9.30;;;;;;;0.04;100.00;99839.72;5074241;28;20028;-85
2022/04/04 04:10:25;;;;;;;16.05;9.25;;;;;;;0.09;100.00;99831.00;5074060;28;20363;-84
2022/04/04 04:12:51;;;;;;;18.10;10.00;;;;;;;0.05;100.00;99830.97;5075794;28;20039;-85
2022/04/04 04:15:19;;;;;;;17.85;10.00;;;;;;;0.04;100.00;99822.22;5076066;28;20024;-85
2022/04/04 04:17:45;;;;;;;18.30;9.70;;;;;;;0.07;100.00;99821.34;5075092;28;20028;-85
2022/04/04 04:20:20;;;;;;;17.83;10.18;;;;;;;0.16;100.00;99823.16;5079257;28;20182;-85
2022/04/04 04:23:13;;;;;;;16.08;9.40;;;;;;;0.18;100.00;99816.19;5076903;28;20021;-86
2022/04/04 04:25:38;;;;;;;19.17;10.60;;;;;;;0.22;100.00;99807.44;5078362;28;20393;-85
2022/04/04 04:28:09;;;;;;;18.50;10.77;;;;;;;0.18;100.00;99816.19;5079928;28;20024;-86
2022/04/04 04:30:40;;;;;;;16.67;10.27;;;;;;;0.18;100.00;99800.41;5073135;28;20033;-86
2022/04/04 04:33:28;;;;;;;16.33;10.15;;;;;;;0.22;100.00;99799.56;5075747;28;20032;-88
2022/04/04 04:36:16;;;;;;;18.98;9.85;;;;;;;0.35;100.00;99791.72;5074190;28;20020;-87
2022/04/04 04:38:47;;;;;;;17.88;9.25;;;;;;;0.33;100.00;99790.00;5074838;28;20447;-87
2022/04/04 04:41:26;;;;;;;19.10;10.60;;;;;;;0.31;100.00;99781.19;5073631;28;20052;-87
2022/04/04 04:43:54;;;;;;;17.63;9.65;;;;;;;0.28;100.00;99786.47;5074047;28;20023;-87
2022/04/04 04:46:19;;;;;;;16.48;9.82;;;;;;;0.33;100.00;99779.47;5073668;28;20028;-88
2022/04/04 04:48:45;;;;;;;15.75;9.45;;;;;;;0.39;100.00;99769.84;5074199;28;20020;-91
2022/04/04 04:51:11;;;;;;;15.70;8.80;;;;;;;0.38;100.00;99773.34;5072933;28;20052;-86
2022/04/04 04:53:45;;;;;;;14.50;9.10;;;;;;;0.33;100.00;99758.47;5072886;28;20075;-88
2022/04/04 04:56:11;;;;;;;13.18;8.73;;;;;;;0.43;100.00;99774.25;5074976;28;20062;-88
2022/04/04 04:58:36;;;;;;;17.20;7.90;;;;;;;0.43;100.00;99763.75;5074038;28;20521;-88
2022/04/04 05:01:01;;;;;;;15.00;7.57;;;;;;;0.52;100.00;99760.25;5075814;28;20024;-89
2022/04/04 05:03:33;;;;;;;13.80;7.78;;;;;;;0.48;100.00;99751.50;5084974;28;20082;-87
2022/04/04 05:05:58;;;;;;;15.10;8.30;;;;;;;0.50;100.00;99749.75;5084826;28;20378;-88
2022/04/04 05:08:37;;;;;;;13.20;7.68;;;;;;;0.54;100.00;99759.38;5076670;28;20102;-89
2022/04/04 05:11:06;;;;;;;14.27;8.48;;;;;;;0.52;100.00;99740.13;5077300;28;20020;-89
2022/04/04 05:13:34;;;;;;;15.32;7.35;;;;;;;0.58;100.00;99735.75;5073880;28;20032;-90
2022/04/04 05:16:10;;;;;;;13.70;7.20;;;;;;;0.64;100.00;99733.16;5075046;28;20028;-90
2022/04/04 05:18:39;;;;;;;12.75;7.07;;;;;;;0.67;100.00;99730.53;5073697;28;20477;-89
2022/04/04 05:21:09;;;;;;;11.93;6.97;;;;;;;0.68;100.00;99718.25;5073404;28;20032;-90
2022/04/04 05:23:49;;;;;;;12.93;7.35;;;;;;;0.69;100.00;99712.13;5074069;28;20062;-89
2022/04/04 05:26:18;;;;;;;11.35;6.53;;;;;;;0.71;100.00;99727.03;5075018;28;20540;-89
2022/04/04 05:28:43;;;;;;;11.27;6.50;;;;;;;0.74;100.00;99719.16;5073813;28;20020;-90
2022/04/04 05:31:08;;;;;;;10.27;6.07;;;;;;;0.84;100.00;99711.25;5074383;28;20073;-90
2022/04/04 05:33:34;;;;;;;14.48;6.50;;;;;;;0.86;100.00;99705.13;5073153;28;20028;-88
2022/04/04 05:36:05;;;;;;;12.00;6.80;;;;;;;0.87;100.00;99698.13;5074790;28;20078;-89
2022/04/04 05:38:34;;;;;;;12.30;6.53;;;;;;;0.92;100.00;99692.88;5072661;28;20547;-89
2022/04/04 05:41:02;;;;;;;13.00;6.10;;;;;;;0.90;100.00;99695.50;5072849;28;20051;-89
2022/04/04 05:43:27;;;;;;;11.90;6.55;;;;;;;0.93;100.00;99686.75;5072917;28;20460;-90
2022/04/04 05:46:02;;;;;;;13.15;5.60;;;;;;;0.94;100.00;99692.00;5074043;28;20048;-89
2022/04/04 05:48:35;;;;;;;11.52;5.85;;;;;;;0.97;100.00;99699.88;5073272;28;20040;-89
2022/04/04 05:51:09;;;;;;;11.43;6.30;;;;;;;0.98;100.00;99683.22;5072868;28;20112;-89
2022/04/04 05:53:56;;;;;;;12.13;5.20;;;;;;;0.99;100.00;99674.47;5073022;28;20033;-88
2022/04/04 05:56:21;;;;;;;11.50;5.63;;;;;;;1.07;100.00;99681.47;5073628;28;20088;-90
2022/04/04 05:59:14;;;;;;;11.95;6.35;;;;;;;1.08;100.00;99689.34;5074128;28;20255;-90
2022/04/04 06:02:13;;;;;;;12.20;5.40;;;;;;;1.11;100.00;99677.94;5073341;28;20029;-90
2022/04/04 06:04:57;;;;;;;12.55;5.88;;;;;;;1.18;100.00;99669.19;5058216;28;20039;-89
2022/04/04 06:07:25;;;;;;;;;;;;;;;1.19;100.00;99665.66;5075036;28;20024;-90
2022/04/04 06:09:56;;;;;;;11.98;5.75;;;;;;;1.15;100.00;99648.16;5075152;28;19908;-91
2022/04/04 06:12:30;;;;;;;10.65;5.70;;;;;;;1.17;100.00;99659.53;5078302;28;20382;-89
2022/04/04 06:14:56;;;;;;;12.00;5.95;;;;;;;1.14;100.00;99656.91;5079070;28;20040;-90
2022/04/04 06:17:21;;;;;;;11.80;6.03;;;;;;;1.19;100.00;99634.09;5075916;28;20020;-90
2022/04/04 06:19:46;;;;;;;11.60;5.97;;;;;;;1.24;100.00;99647.25;5078022;28;20075;-89
2022/04/04 06:22:12;;;;;;;10.30;5.60;;;;;;;1.22;100.00;99634.09;5079274;28;20174;-89
2022/04/04 06:24:38;;;;;;;12.10;5.63;;;;;;;1.27;100.00;99654.25;5079356;28;20024;-90
2022/04/04 06:27:06;;;;;;;12.38;5.85;;;;;;;1.28;100.00;99627.09;5079440;28;20491;-91
2022/04/04 06:29:31;;;;;;;9.52;4.95;;;;;;;1.32;100.00;99619.16;5077748;28;20028;-91
2022/04/04 06:31:58;;;;;;;12.18;5.63;;;;;;;1.29;100.00;99615.69;5076700;28;20020;-90
2022/04/04 06:34:24;;;;;;;10.82;5.13;;;;;;;1.36;100.00;99604.25;5078401;28;20025;-91
2022/04/04 06:36:51;;;;;;;10.70;6.55;;;;;;;1.41;100.00;99606.88;5078741;28;20029;-91
2022/04/04 06:39:17;;;;;;;10.57;5.30;;;;;;;1.47;100.00;99606.00;5077950;28;20112;-91
2022/04/04 06:41:42;;;;;;;11.43;5.70;;;;;;;1.52;99.95;99606.84;5078146;28;20055;-91
2022/04/04 06:44:26;;;;;;;7.38;4.55;;;;;;;1.55;99.01;99583.13;5076860;28;20020;-88
2022/04/04 06:46:52;;;;;;;;;;;;;;;1.57;99.12;99591.91;5076350;28;20039;-90
2022/04/04 06:49:17;;;;;;;9.38;5.13;;;;;;;1.63;97.88;99570.81;5076204;28;19909;-90
2022/04/04 06:51:43;;;;;;;12.68;6.10;;;;;;;1.69;98.66;99569.91;5077181;28;20033;-90
2022/04/04 06:54:08;;;;;;;10.07;4.95;;;;;;;1.77;98.43;99557.59;5076372;28;20020;-90
2022/04/04 06:56:35;;;;;;;10.98;4.68;;;;;;;1.80;96.99;99567.25;5076335;28;20070;-91
2022/04/04 06:59:06;;;;;;;9.45;4.85;;;;;;;1.87;96.51;99563.69;5076251;28;20107;-89
2022/04/04 07:01:31;;;;;;;11.25;5.40;;;;;;;1.85;96.27;99560.19;5076427;28;20043;-90
2022/04/04 07:04:10;;;;;;;9.32;5.20;;;;;;;1.93;95.88;99546.97;5077140;28;20024;-91
2022/04/04 07:06:35;;;;;;;9.32;5.50;;;;;;;1.95;94.85;99544.31;5079314;28;20031;-91
2022/04/04 07:09:10;;;;;;;9.40;5.47;;;;;;;2.00;95.44;99553.06;5077845;28;20029;-90
2022/04/04 07:11:35;;;;;;;9.45;5.15;;;;;;;2.05;93.65;99561.81;5078388;28;20029;-92
2022/04/04 07:14:07;;;;;;;9.15;5.13;;;;;;;2.06;94.23;99537.22;5077713;28;20538;-90
2022/04/04 07:16:32;;;;;;;10.48;5.32;;;;;;;2.18;94.41;99543.28;5078508;28;20058;-90
2022/04/04 07:19:15;;;;;;;13.25;5.93;;;;;;;2.27;92.80;99530.03;5076201;28;20021;-91
2022/04/04 07:21:41;;;;;;;11.83;5.37;;;;;;;2.36;93.02;99499.22;5076402;28;20119;-90
2022/04/04 07:24:06;;;;;;;12.93;6.18;;;;;;;2.38;92.03;99510.63;5078870;28;20443;-90
2022/04/04 07:26:35;;;;;;;14.13;5.80;;;;;;;2.45;90.62;99499.13;5077600;28;20024;-88
2022/04/04 07:29:09;;;;;;;12.18;5.65;;;;;;;2.48;90.01;99509.66;5075351;28;20048;-89
2022/04/04 07:31:36;;;;;;;10.40;5.88;;;;;;;2.52;90.87;99503.50;5075395;28;20038;-91
2022/04/04 07:34:16;;;;;;;11.00;5.05;;;;;;;2.59;88.39;99500.78;5075321;28;20029;-86
2022/04/04 07:36:44;;;;;;;8.27;5.20;;;;;;;2.65;89.71;99500.72;5071116;28;20504;-86
2022/04/04 07:39:10;;;;;;;12.60;6.47;;;;;;;2.68;91.16;99498.91;5074688;28;20044;-87
2022/04/04 07:41:35;;;;;;;9.82;5.50;;;;;;;2.75;88.15;99493.59;5076443;28;20411;-87
2022/04/04 07:44:00;;;;;;;12.85;6.00;;;;;;;2.72;88.15;99490.97;5076756;28;20071;-88
2022/04/04 07:46:26;;;;;;;12.27;6.95;;;;;;;2.76;87.89;99500.59;5076222;28;20025;-89
2022/04/04 07:48:55;;;;;;;15.75;7.50;;;;;;;2.71;88.80;99471.66;5075012;28;20025;-88
2022/04/04 07:51:24;;;;;;;12.93;7.07;;;;;;;2.76;88.68;99475.09;5074342;28;20503;-87
2022/04/04 07:53:58;;;;;;;12.85;6.80;;;;;;;2.74;87.51;99463.72;5074289;28;20547;-89
2022/04/04 07:56:23;;;;;;;11.90;6.88;;;;;;;2.75;89.24;99451.41;5074769;28;20028;-90
2022/04/04 07:58:49;;;;;;;10.85;6.55;;;;;;;2.80;88.10;99449.59;5076088;28;20070;-89
2022/04/04 08:01:14;;;;;;;10.45;6.00;;;;;;;2.83;88.01;99444.28;5074940;28;20024;-87
2022/04/04 08:03:42;;;;;;;10.05;6.15;;;;;;;2.85;87.71;99449.53;5075676;28;20025;-88
2022/04/04 08:06:07;;;;;;;10.73;5.57;;;;;;;2.78;88.68;99420.59;5075768;28;20032;-88
2022/04/04 08:08:39;;;;;;;11.57;6.63;;;;;;;2.73;90.46;99411.88;5076166;28;20388;-86
2022/04/04 08:11:09;;;;;;;11.10;7.00;;;;;;;2.67;92.27;99411.94;5076057;28;20024;-90
2022/04/04 08:13:44;;;;;;;12.70;6.82;;;;;;;2.64;93.52;99419.88;5073997;28;20021;-86
2022/04/04 08:16:09;;;;;;;12.10;6.40;;;;;;;2.59;94.53;99419.94;5075432;28;20023;-87
2022/04/04 08:18:35;;;;;;;11.13;6.13;;;;;;;2.43;98.15;99428.00;5075297;28;20017;-86
2022/04/04 08:21:03;;;;;;;13.52;6.50;;;;;;;2.43;99.55;99408.69;5073617;28;20504;-88
2022/04/04 08:23:29;;;;;;;15.73;7.18;;;;;;;2.49;100.00;99387.56;5075866;28;20023;-87
2022/04/04 08:26:04;;;;;;;12.02;6.85;;;;;;;2.44;100.00;99384.97;5075286;28;20025;-88
2022/04/04 08:28:38;;;;;;;14.95;7.63;;;;;;;2.44;100.00;99381.47;5073884;28;20070;-87
2022/04/04 08:31:23;;;;;;;11.40;6.85;;;;;;;2.40;100.00;99371.81;5074986;28;20035;-87
2022/04/04 08:33:48;;;;;;;12.27;8.10;;;;;;;2.38;100.00;99368.34;5073880;28;20032;-87
2022/04/04 08:36:14;;;;;;;11.15;6.78;;;;;;;2.43;100.00;99377.06;5073822;28;20107;-87
2022/04/04 08:38:40;;;;;;;13.18;6.97;;;;;;;2.43;100.00;99358.63;5073932;28;20017;-86
2022/04/04 08:41:05;;;;;;;12.85;6.82;;;;;;;2.47;100.00;99352.44;5072244;28;20024;-86
2022/04/04 08:43:39;;;;;;;12.68;6.35;;;;;;;2.54;100.00;99348.84;5074642;28;20017;-88
2022/04/04 08:46:06;;;;;;;;;;;;;;;2.61;100.00;99349.63;5075610;28;20029;-87
2022/04/04 08:48:39;;;;;;;10.60;6.50;;;;;;;2.64;100.00;99340.81;5073995;28;19908;-88
2022/04/04 08:51:16;;;;;;;11.50;6.10;;;;;;;2.66;100.00;99304.75;5073179;28;20024;-88
2022/04/04 08:53:41;;;;;;;12.73;6.30;;;;;;;2.72;100.00;99333.69;5072540;28;20028;-88
2022/04/04 08:56:11;;;;;;;13.52;7.22;;;;;;;2.80;100.00;99328.31;5074424;28;20027;-87
2022/04/04 08:58:37;;;;;;;16.00;8.13;;;;;;;2.81;100.00;99302.81;5073093;28;20074;-84
2022/04/04 09:01:03;;;;;;;12.90;7.70;;;;;;;2.89;100.00;99306.19;5073030;22;20052;-75
2022/04/04 09:03:31;;;;;;;15.07;8.82;;;;;;;2.94;100.00;99309.63;5053799;28;20025;-76
2022/04/04 09:05:58;;;;;;;13.18;8.60;;;;;;;3.00;100.00;99314.84;5053699;28;20421;-77
2022/04/04 09:08:25;;;;;;;13.95;8.23;;;;;;;2.99;100.00;99301.69;5052484;28;20028;-77
2022/04/04 09:10:56;;;;;;;16.30;8.45;;;;;;;3.06;100.00;99289.25;5053007;28;20379;-77
2022/04/04 09:13:25;;;;;;;13.60;8.85;;;;;;;3.14;100.00;99284.75;5053849;28;20029;-77
2022/04/04 09:16:03;;;;;;;17.10;9.80;;;;;;;3.16;100.00;99285.59;5052245;28;20021;-77
2022/04/04 09:18:37;;;;;;;14.38;10.02;;;;;;;3.17;100.00;99287.31;5053441;28;20028;-77
2022/04/04 09:21:18;;;;;;;13.02;9.07;;;;;;;3.12;100.00;99270.69;5053434;28;20052;-77
2022/04/04 09:23:46;;;;;;;16.17;11.02;;;;;;;2.97;100.00;99251.56;5052111;28;20017;-76
2022/04/04 09:26:26;;;;;;;15.90;10.82;;;;;;;2.97;100.00;99267.41;5053340;28;20486;-77
2022/04/04 09:28:52;;;;;;;15.68;10.90;;;;;;;2.95;100.00;99261.28;5052104;28;20029;-77
2022/04/04 09:31:17;;;;;;;14.55;10.65;;;;;;;2.91;100.00;99241.16;5052058;28;20017;-77
2022/04/04 09:33:43;;;;;;;18.98;12.57;;;;;;;2.87;100.00;99245.59;5053138;28;20056;-76
2022/04/04 09:36:09;;;;;;;16.10;11.10;;;;;;;2.82;100.00;99230.72;5053257;28;20021;-77
2022/04/04 09:38:35;;;;;;;18.33;12.52;;;;;;;2.72;100.00;99222.97;5053559;28;20036;-77
2022/04/04 09:41:05;;;;;;;18.00;12.70;;;;;;;2.77;100.00;99207.94;5053193;28;20046;-77
2022/04/04 09:43:56;;;;;;;20.08;12.45;;;;;;;2.77;100.00;99205.31;5053103;28;20031;-77
2022/04/04 09:46:22;;;;;;;18.05;11.27;;;;;;;2.70;100.00;99203.66;5053144;28;20021;-77
2022/04/04 09:49:22;;;;;;;20.63;12.55;;;;;;;2.77;100.00;99207.94;5053200;28;20385;-77
2022/04/04 09:51:53;;;;;;;19.17;12.25;;;;;;;2.73;100.00;99194.84;5041424;28;20126;-77
2022/04/04 09:54:28;;;;;;;19.55;11.90;;;;;;;2.68;100.00;99193.13;5053233;28;20021;-77
2022/04/04 09:57:13;;;;;;;21.42;11.77;;;;;;;2.67;100.00;99174.72;5052990;28;20082;-77
2022/04/04 09:59:41;;;;;;;17.40;13.25;;;;;;;2.67;100.00;99186.13;5052871;28;20028;-77
2022/04/04 10:02:07;;;;;;;19.92;13.55;;;;;;;2.72;100.00;99177.25;5053296;28;20037;-77
2022/04/04 10:04:33;;;;;;;21.92;14.52;;;;;;;2.75;100.00;99164.91;5051639;28;20091;-77
2022/04/04 10:07:03;;;;;;;18.40;13.43;;;;;;;2.81;100.00;99160.44;5053210;28;20068;-77
2022/04/04 10:09:29;;;;;;;20.88;12.98;;;;;;;2.75;100.00;99164.91;5051539;28;20108;-77
2022/04/04 10:11:56;;;;;;;17.05;12.18;;;;;;;2.79;100.00;99190.31;5052740;28;20108;-77
2022/04/04 10:14:22;;;;;;;19.35;13.05;;;;;;;2.75;100.00;99162.28;5052707;28;20021;-77
2022/04/04 10:16:48;;;;;;;21.67;13.65;;;;;;;2.71;100.00;99157.94;5053128;28;20150;-77
2022/04/04 10:19:14;;;;;;;21.73;14.00;;;;;;;2.69;100.00;99159.72;5051552;28;20107;-77
2022/04/04 10:21:40;;;;;;;20.77;14.38;;;;;;;2.69;100.00;99141.28;5052829;28;20024;-77
2022/04/04 10:24:08;;;;;;;22.77;17.13;;;;;;;2.58;100.00;99133.53;5053093;28;20017;-77
2022/04/04 10:26:35;;;;;;;27.50;17.85;;;;;;;2.59;100.00;99126.50;5052982;28;20474;-78
2022/04/04 10:29:14;;;;;;;26.35;15.60;;;;;;;2.65;100.00;99118.50;5053049;28;20490;-78
2022/04/04 10:31:44;;;;;;;22.17;15.13;;;;;;;2.59;100.00;99122.09;5053363;28;20048;-78
2022/04/04 10:34:13;;;;;;;23.77;14.30;;;;;;;2.61;100.00;99114.16;5052649;28;20021;-78
2022/04/04 10:36:53;;;;;;;23.45;16.80;;;;;;;2.58;100.00;99090.53;5052680;28;20025;-78
2022/04/04 10:39:31;;;;;;;19.92;14.15;;;;;;;2.63;100.00;99084.25;5051454;28;20028;-78
2022/04/04 10:41:57;;;;;;;20.05;14.77;;;;;;;2.60;100.00;99091.34;5052616;28;20025;-77
2022/04/04 10:44:45;;;;;;;19.95;13.23;;;;;;;2.65;100.00;99081.59;5053023;28;20071;-78
2022/04/04 10:47:21;;;;;;;21.40;13.90;;;;;;;2.98;100.00;99074.00;5052853;28;20021;-77
2022/04/04 10:49:47;;;;;;;24.20;16.80;;;;;;;2.60;100.00;99083.44;5052734;28;20055;-78
2022/04/04 10:52:12;;;;;;;22.67;15.98;;;;;;;2.60;100.00;99122.97;5052545;28;20024;-78
2022/04/04 10:54:38;;;;;;;26.33;15.80;;;;;;;2.60;100.00;99091.34;5052523;28;20102;-78
2022/04/04 10:57:15;;;;;;;26.13;15.98;;;;;;;2.60;100.00;99086.97;5051532;28;20060;-78
2022/04/04 10:59:45;;;;;;;24.25;17.40;;;;;;;2.55;100.00;99081.75;5053392;28;20036;-79
2022/04/04 11:02:14;;;;;;;25.48;17.63;;;;;;;2.56;100.00;99083.50;5053596;28;20064;-78
2022/04/04 11:07:37;;;;;;;25.92;16.15;;;;;;;2.55;100.00;99073.84;5055032;28;20542;-77
2022/04/04 11:07:41;;;;;;;27.15;17.15;;;;;;;2.54;100.00;99074.75;5056852;28;20025;-78
2022/04/04 11:10:10;;;;;;;27.80;19.27;;;;;;;2.54;100.00;99058.94;5057334;28;20020;-78
2022/04/04 11:13:02;;;;;;;25.25;17.05;;;;;;;2.58;100.00;99045.72;5057451;28;20035;-79
2022/04/04 11:15:42;;;;;;;24.95;15.85;;;;;;;2.52;100.00;99044.91;5056279;28;20024;-78
2022/04/04 11:18:07;;;;;;;24.48;18.05;;;;;;;2.45;100.00;99080.16;5055567;28;20074;-79
2022/04/04 11:20:33;;;;;;;25.83;15.90;;;;;;;2.44;100.00;99036.28;5057445;28;20029;-79
2022/04/04 11:23:10;;;;;;;23.50;14.85;;;;;;;2.43;100.00;99045.06;5058273;28;20067;-78
2022/04/04 11:26:08;;;;;;;26.15;16.30;;;;;;;2.40;100.00;99039.81;5057506;28;20021;-80
2022/04/04 11:28:36;;;;;;;22.92;15.52;;;;;;;2.39;100.00;99032.84;5055078;28;20041;-79
2022/04/04 11:31:09;;;;;;;25.15;15.30;;;;;;;2.42;100.00;99038.91;5059822;28;20047;-79
2022/04/04 11:33:47;;;;;;;22.25;13.15;;;;;;;2.42;100.00;99019.63;5060608;28;20107;-79